Time;durP1;ratioP1;P1;durP2;ratioP2;P2;SDS_P1;SDS_P2;PMS_P1;PMS_P2;Temp;Humidity;BMP_temperature;BMP_pressure;BME280_temperature;BME280_humidity;BME280_pressure;Samples;Min_cycle;Max_cycle;Signal;HPM_P1;HPM_P2
2023/08/26 00:00:29;;;;;;;99.50;53.67;;;18.00;93.40;;;;;;4920127;28;89095;-75
2023/08/26 00:02:55;;;;;;;98.45;53.70;;;18.00;92.90;;;;;;4922482;28;90341;-75
2023/08/26 00:05:20;;;;;;;99.07;53.80;;;18.00;93.10;;;;;;4921558;28;89555;-75
2023/08/26 00:07:46;;;;;;;98.72;53.88;;;18.00;93.10;;;;;;4930148;28;89198;-75
2023/08/26 00:10:12;;;;;;;98.82;53.55;;;18.00;93.00;;;;;;4921025;28;90509;-74
2023/08/26 00:12:38;;;;;;;97.78;53.40;;;18.00;93.40;;;;;;4925506;28;89216;-74
2023/08/26 00:15:05;;;;;;;99.05;53.72;;;18.00;93.40;;;;;;4915765;28;91017;-74
2023/08/26 00:17:32;;;;;;;99.32;53.95;;;18.00;93.10;;;;;;4930463;28;90392;-75
2023/08/26 00:19:57;;;;;;;98.82;53.88;;;18.00;93.80;;;;;;4923561;28;89038;-75
2023/08/26 00:22:23;;;;;;;99.18;53.70;;;18.00;93.40;;;;;;4910393;28;89462;-75
2023/08/26 00:24:49;;;;;;;99.28;53.55;;;18.00;93.10;;;;;;4922551;28;90797;-73
2023/08/26 00:27:14;;;;;;;98.82;53.70;;;18.00;93.20;;;;;;4927306;28;89450;-73
2023/08/26 00:29:40;;;;;;;97.30;53.53;;;18.10;93.80;;;;;;4929279;28;93788;-73
2023/08/26 00:32:06;;;;;;;98.22;53.53;;;18.10;93.50;;;;;;4925680;28;90898;-74
2023/08/26 00:34:31;;;;;;;97.85;53.58;;;18.00;93.70;;;;;;4924288;28;90587;-74
2023/08/26 00:36:57;;;;;;;98.22;53.83;;;18.10;92.70;;;;;;4901438;28;89714;-74
2023/08/26 00:39:23;;;;;;;98.65;54.00;;;18.10;93.50;;;;;;4927511;28;90482;-74
2023/08/26 00:41:48;;;;;;;97.95;53.63;;;18.10;93.20;;;;;;4921910;28;90015;-73
2023/08/26 00:44:14;;;;;;;97.88;53.53;;;18.10;93.60;;;;;;4907762;28;90075;-74
2023/08/26 00:46:40;;;;;;;98.38;53.92;;;18.10;93.20;;;;;;4932191;28;89270;-73
2023/08/26 00:49:06;;;;;;;98.03;53.40;;;18.10;92.90;;;;;;4920958;28;94697;-74
2023/08/26 00:51:32;;;;;;;98.63;53.55;;;18.10;93.40;;;;;;4924339;28;91641;-73
2023/08/26 00:53:58;;;;;;;99.07;53.60;;;18.10;92.40;;;;;;4922299;28;90516;-74
2023/08/26 00:56:23;;;;;;;98.28;53.63;;;18.10;92.70;;;;;;4916578;28;89287;-73
2023/08/26 00:58:49;;;;;;;98.03;53.45;;;18.10;93.00;;;;;;4918548;28;90883;-73
2023/08/26 01:01:15;;;;;;;97.97;53.47;;;18.10;92.80;;;;;;4924850;28;89184;-74
2023/08/26 01:03:41;;;;;;;99.18;53.90;;;18.10;92.90;;;;;;4921460;28;90576;-73
2023/08/26 01:06:06;;;;;;;97.93;53.28;;;18.20;92.90;;;;;;4926173;28;90727;-73
2023/08/26 01:08:33;;;;;;;98.40;53.72;;;18.10;92.60;;;;;;4919483;28;90037;-73
2023/08/26 01:11:23;;;;;;;98.13;53.42;;;18.10;92.90;;;;;;4925122;28;89918;-75
2023/08/26 01:14:20;;;;;;;98.78;53.50;;;18.10;92.80;;;;;;4928550;28;91507;-73
2023/08/26 01:16:47;;;;;;;97.60;53.53;;;18.20;93.40;;;;;;4926803;28;94729;-74
2023/08/26 01:19:30;;;;;;;99.55;53.42;;;18.10;92.90;;;;;;4917266;28;94686;-73
2023/08/26 01:22:00;;;;;;;99.70;53.35;;;18.10;92.60;;;;;;4924769;28;91668;-73
2023/08/26 01:24:26;;;;;;;97.72;53.60;;;18.10;92.90;;;;;;4921771;28;89505;-73
2023/08/26 01:26:52;;;;;;;97.07;53.25;;;18.10;92.70;;;;;;4921424;28;90634;-73
2023/08/26 01:29:18;;;;;;;98.05;53.75;;;18.10;93.10;;;;;;4925508;28;91460;-74
2023/08/26 01:31:47;;;;;;;97.78;53.45;;;18.00;92.70;;;;;;4923376;28;89536;-75
2023/08/26 01:34:27;;;;;;;97.88;53.60;;;18.00;93.10;;;;;;4910535;28;93540;-73
2023/08/26 01:36:57;;;;;;;98.13;53.60;;;18.00;93.10;;;;;;4926084;28;89873;-74
2023/08/26 01:39:22;;;;;;;98.55;53.60;;;18.00;93.10;;;;;;4927853;28;91487;-73
2023/08/26 01:41:51;;;;;;;97.47;53.15;;;18.00;92.90;;;;;;4911226;28;90476;-74
2023/08/26 01:44:18;;;;;;;98.75;53.65;;;18.00;92.80;;;;;;4923177;28;90994;-74
2023/08/26 01:46:45;;;;;;;97.50;53.58;;;18.00;93.30;;;;;;4914644;28;89942;-73
2023/08/26 01:49:11;;;;;;;97.18;53.33;;;17.90;93.40;;;;;;4905502;28;91438;-74
2023/08/26 01:51:37;;;;;;;97.57;53.50;;;17.90;93.00;;;;;;4926712;28;90693;-73
2023/08/26 01:54:05;;;;;;;99.10;53.42;;;18.00;92.90;;;;;;4905675;28;93291;-73
2023/08/26 01:56:30;;;;;;;97.03;53.15;;;18.00;93.60;;;;;;4927524;28;90229;-73
2023/08/26 01:58:56;;;;;;;97.13;53.28;;;17.90;93.90;;;;;;4912072;28;94836;-73
2023/08/26 02:01:22;;;;;;;98.75;53.45;;;18.00;93.50;;;;;;4917347;28;91020;-73
2023/08/26 02:03:47;;;;;;;97.25;53.33;;;17.90;93.10;;;;;;4929411;28;92497;-74
2023/08/26 02:06:13;;;;;;;99.57;53.30;;;17.90;93.90;;;;;;4907738;28;91770;-74
2023/08/26 02:08:38;;;;;;;97.97;53.50;;;17.90;93.30;;;;;;4930111;28;92053;-74
2023/08/26 02:11:04;;;;;;;97.72;53.85;;;17.90;93.50;;;;;;4923005;28;93281;-74
2023/08/26 02:13:30;;;;;;;97.45;53.38;;;17.90;93.30;;;;;;4924954;28;90714;-74
2023/08/26 02:15:56;;;;;;;98.55;53.50;;;17.90;93.10;;;;;;4910114;28;91760;-74
2023/08/26 02:18:22;;;;;;;97.03;53.33;;;17.90;93.00;;;;;;4928819;28;90160;-74
2023/08/26 02:20:48;;;;;;;97.07;53.42;;;17.90;93.10;;;;;;4913382;28;92120;-74
2023/08/26 02:23:14;;;;;;;97.30;53.50;;;17.90;93.40;;;;;;4932476;28;90320;-75
2023/08/26 02:25:41;;;;;;;97.55;53.47;;;17.90;93.20;;;;;;4926475;28;91768;-73
2023/08/26 02:28:07;;;;;;;97.90;53.33;;;17.90;92.90;;;;;;4921595;28;90669;-74
2023/08/26 02:30:33;;;;;;;97.63;53.53;;;17.90;93.40;;;;;;4926153;28;91871;-73
2023/08/26 02:32:59;;;;;;;98.63;53.30;;;17.90;93.10;;;;;;4920745;28;90501;-75
2023/08/26 02:35:25;;;;;;;98.05;53.47;;;17.90;93.60;;;;;;4932573;28;89167;-74
2023/08/26 02:37:50;;;;;;;96.30;53.10;;;17.90;93.30;;;;;;4929191;28;89519;-73
2023/08/26 02:40:16;;;;;;;97.57;53.47;;;17.90;93.70;;;;;;4927724;28;89581;-73
2023/08/26 02:42:42;;;;;;;97.22;53.70;;;17.80;93.30;;;;;;4919428;28;91937;-73
2023/08/26 02:45:07;;;;;;;96.78;53.20;;;17.90;93.40;;;;;;4933738;28;90923;-74
2023/08/26 02:47:33;;;;;;;97.72;53.70;;;17.80;93.80;;;;;;4910024;28;89950;-73
2023/08/26 02:49:58;;;;;;;97.78;53.42;;;17.80;93.30;;;;;;4926003;28;91115;-74
2023/08/26 02:52:24;;;;;;;97.72;53.28;;;17.80;93.30;;;;;;4920458;28;92057;-73
2023/08/26 02:54:50;;;;;;;96.75;52.92;;;17.70;93.50;;;;;;4925701;28;89878;-74
2023/08/26 02:57:16;;;;;;;96.57;53.10;;;17.80;93.50;;;;;;4922040;28;91148;-74
2023/08/26 02:59:42;;;;;;;97.35;53.40;;;17.80;93.50;;;;;;4910880;28;88890;-74
2023/08/26 03:02:08;;;;;;;97.72;53.22;;;17.80;93.80;;;;;;4928843;28;90004;-74
2023/08/26 03:04:34;;;;;;;96.85;53.42;;;17.70;94.10;;;;;;4928546;28;91648;-74
2023/08/26 03:06:59;;;;;;;97.20;53.38;;;17.70;93.20;;;;;;4936919;28;90137;-73
2023/08/26 03:09:29;;;;;;;97.22;53.50;;;17.70;93.40;;;;;;4923945;28;90439;-73
2023/08/26 03:11:58;;;;;;;97.68;53.35;;;17.70;93.60;;;;;;4908259;28;89837;-74
2023/08/26 03:14:23;;;;;;;98.18;53.10;;;17.70;93.30;;;;;;4927041;28;90128;-73
2023/08/26 03:16:49;;;;;;;98.38;53.25;;;17.70;93.60;;;;;;4927457;28;90900;-73
2023/08/26 03:19:15;;;;;;;96.50;53.35;;;17.60;93.40;;;;;;4928552;28;89227;-73
2023/08/26 03:21:40;;;;;;;96.47;53.40;;;17.70;94.10;;;;;;4923376;28;90481;-74
2023/08/26 03:24:07;;;;;;;98.38;53.70;;;17.60;94.10;;;;;;4930617;28;90667;-74
2023/08/26 03:26:32;;;;;;;96.70;53.08;;;17.60;93.90;;;;;;4923829;28;94071;-73
2023/08/26 03:28:58;;;;;;;96.68;53.35;;;17.60;93.60;;;;;;4917906;28;89706;-74
2023/08/26 03:31:24;;;;;;;97.18;53.38;;;17.60;93.50;;;;;;4924118;28;90452;-74
2023/08/26 03:33:49;;;;;;;99.05;53.22;;;17.60;93.40;;;;;;4929410;28;93279;-74
2023/08/26 03:36:15;;;;;;;96.95;53.17;;;17.60;93.40;;;;;;4929893;28;90995;-74
2023/08/26 03:38:40;;;;;;;97.07;52.97;;;17.60;94.10;;;;;;4926535;28;95373;-73
2023/08/26 03:41:06;;;;;;;96.57;53.15;;;17.60;93.70;;;;;;4922099;28;91555;-74
2023/08/26 03:43:32;;;;;;;96.75;53.25;;;17.60;93.80;;;;;;4918522;28;91100;-73
2023/08/26 03:45:59;;;;;;;96.07;53.08;;;17.60;93.70;;;;;;4905596;28;90312;-74
2023/08/26 03:48:25;;;;;;;97.47;53.17;;;17.60;93.70;;;;;;4923456;28;89695;-74
2023/08/26 03:50:55;;;;;;;96.63;53.40;;;17.60;93.80;;;;;;4920409;28;89468;-73
2023/08/26 03:53:20;;;;;;;95.85;53.05;;;17.60;93.30;;;;;;4925237;28;89541;-74
2023/08/26 03:55:46;;;;;;;97.72;53.50;;;17.60;94.40;;;;;;4929170;28;90497;-74
2023/08/26 03:58:12;;;;;;;97.25;53.25;;;17.60;93.60;;;;;;4922207;28;94554;-73
2023/08/26 04:00:38;;;;;;;97.47;53.35;;;17.60;93.80;;;;;;4929841;28;90378;-74
2023/08/26 04:03:05;;;;;;;96.70;53.10;;;17.50;93.70;;;;;;4907576;28;90088;-74
2023/08/26 04:05:33;;;;;;;96.22;53.05;;;17.60;93.90;;;;;;4914666;28;90019;-74
2023/08/26 04:08:02;;;;;;;96.88;52.95;;;17.50;93.30;;;;;;4921805;28;91752;-74
2023/08/26 04:10:28;;;;;;;96.03;53.13;;;17.50;93.60;;;;;;4928365;28;92381;-74
2023/08/26 04:12:57;;;;;;;97.43;53.45;;;17.50;93.50;;;;;;4921494;28;90489;-74
2023/08/26 04:15:22;;;;;;;96.22;53.03;;;17.50;93.50;;;;;;4925783;28;93593;-74
2023/08/26 04:17:48;;;;;;;97.25;53.35;;;17.50;93.80;;;;;;4926501;28;91632;-74
2023/08/26 04:20:14;;;;;;;96.78;53.42;;;17.60;94.20;;;;;;4908334;28;90522;-74
2023/08/26 04:22:39;;;;;;;97.03;53.25;;;17.50;93.70;;;;;;4923883;28;89775;-74
2023/08/26 04:25:06;;;;;;;95.93;53.20;;;17.50;93.30;;;;;;4922576;28;93416;-75
2023/08/26 04:27:34;;;;;;;97.65;53.35;;;17.50;94.00;;;;;;4919768;28;89437;-74
2023/08/26 04:30:00;;;;;;;96.30;53.22;;;17.50;94.10;;;;;;4927075;28;92361;-74
2023/08/26 04:32:26;;;;;;;96.93;53.05;;;17.50;93.30;;;;;;4918158;28;89195;-74
2023/08/26 04:34:51;;;;;;;97.35;53.25;;;17.50;93.80;;;;;;4919702;28;94502;-73
2023/08/26 04:37:20;;;;;;;96.63;53.22;;;17.50;93.40;;;;;;4922739;28;93439;-75
2023/08/26 04:39:46;;;;;;;96.55;53.15;;;17.50;93.60;;;;;;4908009;28;90527;-73
2023/08/26 04:42:12;;;;;;;96.05;53.05;;;17.50;93.90;;;;;;4918607;28;93174;-73
2023/08/26 04:44:38;;;;;;;96.63;52.90;;;17.50;93.40;;;;;;4929029;28;92259;-74
2023/08/26 04:47:03;;;;;;;96.90;53.50;;;17.50;93.50;;;;;;4899472;28;91947;-74
2023/08/26 04:49:32;;;;;;;96.00;53.25;;;17.50;94.00;;;;;;4931209;28;89709;-74
2023/08/26 04:51:59;;;;;;;96.65;53.20;;;17.50;93.70;;;;;;4916090;28;91429;-74
2023/08/26 04:54:24;;;;;;;97.90;53.25;;;17.50;93.80;;;;;;4909894;28;90797;-74
2023/08/26 04:56:50;;;;;;;96.75;53.25;;;17.40;94.10;;;;;;4910126;28;91518;-74
2023/08/26 04:59:16;;;;;;;95.50;52.95;;;17.40;93.40;;;;;;4923902;28;89312;-73
2023/08/26 05:01:42;;;;;;;97.60;53.13;;;17.50;94.20;;;;;;4925018;28;89769;-74
2023/08/26 05:04:07;;;;;;;95.80;53.08;;;17.50;93.70;;;;;;4925527;28;89180;-74
2023/08/26 05:06:33;;;;;;;96.25;53.00;;;17.50;93.90;;;;;;4928116;28;89667;-74
2023/08/26 05:08:59;;;;;;;99.05;53.15;;;17.50;93.80;;;;;;4904949;28;90282;-74
2023/08/26 05:11:24;;;;;;;96.78;53.13;;;17.50;93.50;;;;;;4913096;28;89558;-74
2023/08/26 05:13:50;;;;;;;96.80;53.35;;;17.50;93.60;;;;;;4907626;28;90035;-75
2023/08/26 05:16:15;;;;;;;97.28;53.38;;;17.40;93.00;;;;;;4938876;28;89335;-73
2023/08/26 05:18:41;;;;;;;96.07;52.88;;;17.40;93.30;;;;;;4930773;28;90139;-74
2023/08/26 05:21:07;;;;;;;95.70;53.30;;;17.50;93.50;;;;;;4926811;28;89391;-74
2023/08/26 05:23:32;;;;;;;96.32;53.22;;;17.50;93.60;;;;;;4905657;28;90150;-73
2023/08/26 05:25:58;;;;;;;96.97;53.20;;;17.50;93.40;;;;;;4929901;28;89324;-74
2023/08/26 05:28:24;;;;;;;96.50;53.17;;;17.50;93.10;;;;;;4934244;28;89290;-74
2023/08/26 05:30:49;;;;;;;95.07;53.10;;;17.50;93.60;;;;;;4907646;28;91084;-74
2023/08/26 05:33:15;;;;;;;97.88;53.15;;;17.50;93.70;;;;;;4928384;28;90076;-74
2023/08/26 05:35:42;;;;;;;95.93;53.15;;;17.50;93.70;;;;;;4926514;28;91104;-74
2023/08/26 05:38:07;;;;;;;95.82;52.80;;;17.50;93.30;;;;;;4931950;28;90370;-74
2023/08/26 05:40:34;;;;;;;95.82;53.08;;;17.50;93.30;;;;;;4922150;28;91133;-74
2023/08/26 05:43:00;;;;;;;96.88;53.28;;;17.50;93.20;;;;;;4906185;28;91443;-74
2023/08/26 05:45:26;;;;;;;96.18;53.33;;;17.50;93.50;;;;;;4908229;28;89537;-74
2023/08/26 05:47:53;;;;;;;95.70;53.03;;;17.60;93.30;;;;;;4933819;28;90243;-74
2023/08/26 05:50:18;;;;;;;96.03;53.25;;;17.50;93.50;;;;;;4905576;28;90177;-74
2023/08/26 05:52:44;;;;;;;95.38;52.92;;;17.60;93.50;;;;;;4925455;28;90110;-74
2023/08/26 05:55:10;;;;;;;99.03;53.15;;;17.60;93.60;;;;;;4926304;28;91253;-74
2023/08/26 05:57:37;;;;;;;96.30;52.75;;;17.60;93.40;;;;;;4924352;28;92450;-74
2023/08/26 06:00:05;;;;;;;96.70;53.05;;;17.60;93.00;;;;;;4912229;28;89668;-73
2023/08/26 06:02:30;;;;;;;96.88;53.13;;;17.60;93.30;;;;;;4922931;28;89958;-74
2023/08/26 06:04:56;;;;;;;95.75;53.13;;;17.70;93.00;;;;;;4924610;28;90390;-75
2023/08/26 06:07:22;;;;;;;96.13;53.08;;;17.70;92.90;;;;;;4928243;28;90662;-74
2023/08/26 06:09:47;;;;;;;98.45;53.65;;;17.70;92.60;;;;;;4929550;28;89774;-74
2023/08/26 06:12:13;;;;;;;96.18;53.28;;;17.70;92.60;;;;;;4919744;28;90710;-74
2023/08/26 06:14:38;;;;;;;97.60;52.95;;;17.70;92.80;;;;;;4924469;28;89614;-74
2023/08/26 06:17:04;;;;;;;97.97;53.40;;;17.70;93.20;;;;;;4920698;28;91124;-74
2023/08/26 06:19:30;;;;;;;96.15;53.25;;;17.80;92.70;;;;;;4926369;28;91986;-75
2023/08/26 06:21:55;;;;;;;97.28;53.33;;;17.80;92.60;;;;;;4907896;28;92723;-74
2023/08/26 06:24:21;;;;;;;96.97;53.58;;;17.80;92.30;;;;;;4930748;28;90037;-74
2023/08/26 06:26:47;;;;;;;96.35;53.28;;;17.90;92.80;;;;;;4923285;28;90180;-74
2023/08/26 06:29:15;;;;;;;96.95;53.38;;;17.90;92.40;;;;;;4924688;28;89497;-75
2023/08/26 06:31:42;;;;;;;96.53;53.03;;;17.90;92.60;;;;;;4926943;28;89425;-75
2023/08/26 06:34:07;;;;;;;97.93;53.30;;;17.90;92.70;;;;;;4920417;28;91684;-74
2023/08/26 06:36:33;;;;;;;97.22;53.17;;;17.90;92.40;;;;;;4927334;28;89754;-74
2023/08/26 06:38:59;;;;;;;98.00;53.65;;;18.00;92.20;;;;;;4925552;28;89355;-75
2023/08/26 06:41:25;;;;;;;96.72;53.00;;;18.00;92.10;;;;;;4918908;28;90028;-73
2023/08/26 06:43:50;;;;;;;97.00;53.38;;;18.10;92.80;;;;;;4919225;28;89446;-74
2023/08/26 06:46:16;;;;;;;96.78;53.33;;;18.10;92.10;;;;;;4913690;28;90698;-75
2023/08/26 06:48:42;;;;;;;96.40;53.20;;;18.10;92.10;;;;;;4925907;28;93302;-75
2023/08/26 06:51:07;;;;;;;97.85;53.10;;;18.10;92.10;;;;;;4934534;22;91128;-45
2023/08/26 06:53:33;;;;;;;98.90;53.42;;;18.10;91.90;;;;;;4899412;28;90176;-46
2023/08/26 06:55:59;;;;;;;96.75;53.22;;;18.20;91.70;;;;;;4906173;28;90501;-44
2023/08/26 06:58:24;;;;;;;97.95;53.50;;;18.20;91.50;;;;;;4902268;28;93362;-44
2023/08/26 07:00:52;;;;;;;97.53;53.47;;;18.20;91.90;;;;;;4905190;28;89984;-46
2023/08/26 07:03:18;;;;;;;96.80;52.97;;;18.20;92.00;;;;;;4909747;28;91531;-44
2023/08/26 07:05:45;;;;;;;97.68;53.70;;;18.20;92.00;;;;;;4895305;28;90036;-44
2023/08/26 07:08:13;;;;;;;98.20;53.30;;;18.20;92.20;;;;;;4900190;28;89933;-47
2023/08/26 07:10:39;;;;;;;98.00;53.45;;;18.30;91.70;;;;;;4902060;28;92280;-46
2023/08/26 07:13:05;;;;;;;97.47;53.25;;;18.20;91.70;;;;;;4896511;28;90280;-47
2023/08/26 07:15:30;;;;;;;97.05;53.13;;;18.30;92.40;;;;;;4894478;28;93633;-42
2023/08/26 07:17:56;;;;;;;97.38;53.30;;;18.30;91.70;;;;;;4899661;28;89668;-43
2023/08/26 07:20:22;;;;;;;97.28;53.42;;;18.30;91.90;;;;;;4892024;28;90516;-47
2023/08/26 07:22:47;;;;;;;98.00;53.38;;;18.30;91.80;;;;;;4887351;28;92356;-43
2023/08/26 07:25:13;;;;;;;100.35;53.75;;;18.40;91.70;;;;;;4895802;28;94963;-45
2023/08/26 07:27:39;;;;;;;97.38;53.28;;;18.40;91.70;;;;;;4894577;28;89434;-44
2023/08/26 07:30:05;;;;;;;98.25;53.13;;;18.50;91.30;;;;;;4900089;28;92283;-49
2023/08/26 07:32:31;;;;;;;97.20;53.28;;;18.50;91.70;;;;;;4894250;28;91835;-44
2023/08/26 07:34:57;;;;;;;99.57;53.78;;;18.60;90.80;;;;;;4900254;28;90793;-44
2023/08/26 07:37:23;;;;;;;97.72;53.40;;;18.60;91.20;;;;;;4899847;28;91360;-44
2023/08/26 07:39:49;;;;;;;97.47;53.40;;;18.60;91.20;;;;;;4909357;28;90295;-43
2023/08/26 07:42:15;;;;;;;99.68;53.55;;;18.70;91.70;;;;;;4905621;28;90270;-47
2023/08/26 07:44:41;;;;;;;98.97;53.92;;;18.70;91.50;;;;;;4904316;28;90905;-45
2023/08/26 07:47:07;;;;;;;100.78;54.25;;;18.70;90.60;;;;;;4899448;28;90895;-49
2023/08/26 07:49:32;;;;;;;102.70;53.90;;;18.70;82.70;;;;;;4902517;28;89765;-43
2023/08/26 07:51:58;;;;;;;100.20;53.88;;;18.80;81.60;;;;;;4914667;28;89917;-43
2023/08/26 07:54:24;;;;;;;99.15;53.60;;;18.90;81.50;;;;;;4924128;28;90711;-48
2023/08/26 07:56:49;;;;;;;99.80;54.08;;;19.10;81.10;;;;;;4927610;28;90419;-46
2023/08/26 07:59:15;;;;;;;100.47;54.08;;;19.10;79.30;;;;;;4920483;28;91270;-45
2023/08/26 08:01:40;;;;;;;99.25;53.75;;;19.10;79.20;;;;;;4920142;28;89777;-49
2023/08/26 08:04:06;;;;;;;98.95;53.70;;;19.00;81.60;;;;;;4916080;28;90039;-49
2023/08/26 08:06:32;;;;;;;99.68;54.05;;;19.00;81.30;;;;;;4923728;28;92761;-48
2023/08/26 08:08:57;;;;;;;100.05;54.08;;;19.20;81.00;;;;;;4921716;28;89509;-46
2023/08/26 08:11:23;;;;;;;101.82;54.10;;;19.10;80.40;;;;;;4924846;28;90687;-49
2023/08/26 08:13:48;;;;;;;101.13;53.85;;;19.20;78.50;;;;;;4918499;28;91005;-46
2023/08/26 08:16:14;;;;;;;102.13;54.03;;;19.30;80.00;;;;;;4929584;28;90147;-48
2023/08/26 08:18:40;;;;;;;100.53;54.13;;;19.40;78.10;;;;;;4919008;28;89636;-50
2023/08/26 08:21:05;;;;;;;100.38;54.35;;;19.40;79.00;;;;;;4920414;28;90142;-44
2023/08/26 08:23:31;;;;;;;99.68;54.08;;;19.40;77.80;;;;;;4918798;28;91608;-49
2023/08/26 08:25:57;;;;;;;100.35;54.05;;;19.40;78.90;;;;;;4924457;28;90304;-51
2023/08/26 08:28:22;;;;;;;99.88;54.08;;;19.40;76.70;;;;;;4924546;28;89337;-49
2023/08/26 08:30:48;;;;;;;99.68;54.05;;;19.40;77.90;;;;;;4917968;28;91668;-49
2023/08/26 08:33:14;;;;;;;101.32;55.00;;;19.40;77.20;;;;;;4926486;28;89798;-52
2023/08/26 08:35:39;;;;;;;104.35;55.58;;;19.40;76.90;;;;;;4917844;28;91154;-47
2023/08/26 08:38:05;;;;;;;102.72;55.35;;;19.40;77.50;;;;;;4924497;28;91848;-48
2023/08/26 08:40:31;;;;;;;102.07;55.03;;;19.40;78.20;;;;;;4920611;28;91056;-52
2023/08/26 08:42:58;;;;;;;101.53;54.65;;;19.50;78.60;;;;;;4923107;28;94080;-52
2023/08/26 08:45:25;;;;;;;103.25;54.20;;;19.40;77.80;;;;;;4917625;28;91097;-47
2023/08/26 08:47:53;;;;;;;99.70;54.65;;;19.30;78.50;;;;;;4923127;28;91275;-48
2023/08/26 08:50:20;;;;;;;98.88;54.22;;;19.20;78.30;;;;;;4917005;28;90278;-44
2023/08/26 08:52:49;;;;;;;100.25;54.05;;;19.20;78.60;;;;;;4924130;28;90577;-50
2023/08/26 08:55:14;;;;;;;99.07;54.03;;;19.30;79.40;;;;;;4922971;28;91105;-49
2023/08/26 08:57:42;;;;;;;99.00;54.05;;;19.30;78.50;;;;;;4924483;28;90537;-44
2023/08/26 09:00:08;;;;;;;99.18;53.85;;;19.40;79.30;;;;;;4923071;28;90380;-48
2023/08/26 09:02:37;;;;;;;100.43;54.47;;;19.40;78.60;;;;;;4920724;28;90207;-47
2023/08/26 09:05:02;;;;;;;99.22;54.20;;;19.50;79.00;;;;;;4923325;28;88972;-46
2023/08/26 09:07:28;;;;;;;99.63;54.22;;;19.50;79.00;;;;;;4924863;28;90011;-48
2023/08/26 09:09:56;;;;;;;100.85;54.13;;;19.50;78.50;;;;;;4924369;28;90303;-47
2023/08/26 09:12:22;;;;;;;99.00;53.75;;;19.50;78.80;;;;;;4931251;28;90522;-47
2023/08/26 09:14:48;;;;;;;99.50;54.35;;;19.50;78.10;;;;;;4923753;28;89669;-49
2023/08/26 09:17:16;;;;;;;102.38;55.50;;;19.60;77.60;;;;;;4920101;28;91382;-47
2023/08/26 09:19:55;;;;;;;102.60;55.50;;;19.60;76.40;;;;;;4927542;28;89799;-45
2023/08/26 09:22:29;;;;;;;99.63;54.40;;;19.70;77.10;;;;;;4930161;28;89553;-45
2023/08/26 09:24:59;;;;;;;103.88;54.65;;;19.70;77.40;;;;;;4923433;28;89825;-50
2023/08/26 09:27:25;;;;;;;100.63;54.70;;;19.90;77.80;;;;;;4930102;28;93369;-45
2023/08/26 09:29:52;;;;;;;103.00;54.25;;;19.90;77.10;;;;;;4923446;28;92884;-45
2023/08/26 09:32:34;;;;;;;101.10;54.35;;;19.90;78.10;;;;;;4922679;28;89615;-46
2023/08/26 09:35:10;;;;;;;102.18;54.35;;;20.00;77.90;;;;;;4924304;28;90137;-48
2023/08/26 09:37:36;;;;;;;102.47;54.30;;;20.00;76.50;;;;;;4917715;28;93064;-46
2023/08/26 09:40:03;;;;;;;101.22;53.83;;;20.10;75.20;;;;;;4916233;28;90249;-44
2023/08/26 09:42:30;;;;;;;100.40;53.80;;;20.00;73.70;;;;;;4916043;28;93334;-48
2023/08/26 09:44:56;;;;;;;102.57;54.10;;;20.00;74.30;;;;;;4917667;28;90164;-48
2023/08/26 09:47:26;;;;;;;101.93;53.85;;;20.10;74.60;;;;;;4924498;28;92862;-46
2023/08/26 09:49:52;;;;;;;100.32;53.78;;;20.00;73.50;;;;;;4931219;28;90648;-46
2023/08/26 09:52:18;;;;;;;100.25;54.10;;;20.00;75.60;;;;;;4923144;28;93767;-47
2023/08/26 09:54:45;;;;;;;102.03;54.85;;;20.10;75.50;;;;;;4927702;28;89395;-47
2023/08/26 09:57:11;;;;;;;103.55;55.13;;;20.20;74.00;;;;;;4923489;28;92450;-47
2023/08/26 09:59:37;;;;;;;104.22;54.90;;;20.40;74.00;;;;;;4932714;28;90571;-47
2023/08/26 10:02:07;;;;;;;104.10;54.92;;;20.40;73.30;;;;;;4938280;28;92264;-47
2023/08/26 10:04:37;;;;;;;100.63;54.30;;;20.40;72.50;;;;;;4922388;28;91773;-48
2023/08/26 10:07:04;;;;;;;102.40;54.65;;;20.30;71.50;;;;;;4928087;28;91095;-47
2023/08/26 10:09:51;;;;;;;101.93;54.47;;;20.30;73.70;;;;;;4928282;28;89541;-46
2023/08/26 10:12:30;;;;;;;101.60;54.63;;;20.50;74.10;;;;;;4921924;28;89472;-42
2023/08/26 10:15:02;;;;;;;101.50;54.63;;;20.50;72.10;;;;;;4924128;28;90217;-44
2023/08/26 10:17:30;;;;;;;102.28;54.60;;;20.50;73.20;;;;;;4919431;28;91033;-43
2023/08/26 10:19:57;;;;;;;100.57;54.50;;;20.50;72.10;;;;;;4923514;28;91465;-45
2023/08/26 10:22:24;;;;;;;104.28;54.60;;;20.50;73.00;;;;;;4919739;28;93493;-42
2023/08/26 10:24:50;;;;;;;100.97;54.58;;;20.50;71.70;;;;;;4923935;28;92174;-44
2023/08/26 10:27:17;;;;;;;103.20;54.60;;;20.60;73.10;;;;;;4930914;28;91704;-45
2023/08/26 10:29:43;;;;;;;101.00;54.47;;;20.70;72.80;;;;;;4923484;28;97132;-47
2023/08/26 10:32:19;;;;;;;102.13;54.97;;;20.70;70.00;;;;;;4927431;28;91797;-45
2023/08/26 10:34:55;;;;;;;105.47;55.22;;;20.80;71.50;;;;;;4918025;28;94514;-48
2023/08/26 10:37:28;;;;;;;106.07;54.88;;;20.80;70.70;;;;;;4922172;28;90305;-45
2023/08/26 10:39:54;;;;;;;106.30;55.15;;;20.90;71.40;;;;;;4920710;28;90803;-43
2023/08/26 10:42:21;;;;;;;103.10;54.90;;;21.00;71.30;;;;;;4927831;28;90644;-43
2023/08/26 10:44:53;;;;;;;102.88;54.72;;;21.00;71.90;;;;;;4920175;28;89034;-43
2023/08/26 10:47:38;;;;;;;101.70;54.35;;;20.90;70.80;;;;;;4919589;28;91849;-44
2023/08/26 10:50:26;;;;;;;101.43;54.72;;;20.90;69.60;;;;;;4925859;28;91093;-44
2023/08/26 10:52:58;;;;;;;104.93;54.92;;;20.80;69.60;;;;;;4920382;28;95210;-42
2023/08/26 10:55:25;;;;;;;104.38;55.25;;;20.80;71.90;;;;;;4925329;28;90399;-44
2023/08/26 10:58:00;;;;;;;102.80;55.35;;;20.80;71.80;;;;;;4922228;28;93280;-44
2023/08/26 11:00:26;;;;;;;106.70;55.17;;;20.80;70.20;;;;;;4929308;28;89980;-43
2023/08/26 11:02:53;;;;;;;103.15;54.35;;;20.80;71.00;;;;;;4920882;28;92305;-44
2023/08/26 11:05:18;;;;;;;102.90;55.35;;;20.80;71.20;;;;;;4911167;28;91529;-43
2023/08/26 11:07:44;;;;;;;104.03;56.13;;;20.70;71.20;;;;;;4922669;28;92618;-46
2023/08/26 11:10:24;;;;;;;105.63;56.10;;;20.80;71.80;;;;;;4924733;28;89215;-44
2023/08/26 11:12:50;;;;;;;103.27;55.20;;;20.60;73.70;;;;;;4928951;28;89902;-44
2023/08/26 11:15:16;;;;;;;108.55;55.47;;;20.60;74.60;;;;;;4926001;28;90509;-44
2023/08/26 11:17:42;;;;;;;104.65;54.97;;;20.60;76.80;;;;;;4925015;28;91218;-45
2023/08/26 11:20:08;;;;;;;100.97;54.58;;;20.60;78.00;;;;;;4920429;28;94652;-46
2023/08/26 11:22:34;;;;;;;100.68;54.72;;;20.70;79.00;;;;;;4920330;28;89755;-50
2023/08/26 11:25:00;;;;;;;101.68;54.50;;;20.70;79.70;;;;;;4926906;28;89266;-51
2023/08/26 11:27:25;;;;;;;102.25;54.65;;;20.70;80.00;;;;;;4921120;28;90270;-59
2023/08/26 11:29:51;;;;;;;101.90;54.50;;;20.70;80.80;;;;;;4919541;28;89748;-44
2023/08/26 11:32:16;;;;;;;102.20;54.97;;;20.80;83.30;;;;;;4922086;28;90713;-47
2023/08/26 11:34:43;;;;;;;100.65;54.72;;;20.80;81.90;;;;;;4922029;28;89683;-50
2023/08/26 11:37:09;;;;;;;101.50;54.88;;;20.80;81.90;;;;;;4918692;28;91190;-47
2023/08/26 11:39:35;;;;;;;102.28;54.75;;;20.90;81.20;;;;;;4923630;28;89542;-47
2023/08/26 11:42:11;;;;;;;100.95;54.88;;;21.00;80.50;;;;;;4921787;28;94607;-56
2023/08/26 11:44:37;;;;;;;102.13;54.53;;;20.90;80.40;;;;;;4926088;28;90179;-44
2023/08/26 11:47:04;;;;;;;103.65;54.95;;;20.80;81.50;;;;;;4920291;28;89659;-50
2023/08/26 11:49:30;;;;;;;103.22;54.67;;;20.80;81.90;;;;;;4921143;28;90838;-54
2023/08/26 11:51:56;;;;;;;102.43;54.53;;;20.80;80.70;;;;;;4919688;28;91436;-53
2023/08/26 11:54:25;;;;;;;102.82;54.63;;;20.70;81.70;;;;;;4915521;28;90380;-46
2023/08/26 11:56:51;;;;;;;106.47;54.97;;;20.80;81.20;;;;;;4919676;28;90219;-46
2023/08/26 11:59:21;;;;;;;102.93;54.83;;;20.90;81.60;;;;;;4920439;28;90105;-50
2023/08/26 12:01:47;;;;;;;103.22;55.15;;;21.00;79.90;;;;;;4921524;28;94166;-48
2023/08/26 12:04:16;;;;;;;102.25;54.97;;;21.00;78.20;;;;;;4915556;28;90944;-46
2023/08/26 12:06:43;;;;;;;105.28;54.78;;;21.10;79.70;;;;;;4917104;28;92483;-57
2023/08/26 12:09:11;;;;;;;102.43;55.03;;;21.10;78.20;;;;;;4917043;28;92238;-59
2023/08/26 12:11:40;;;;;;;100.25;54.45;;;21.10;77.80;;;;;;4911464;28;90712;-54
2023/08/26 12:14:19;;;;;;;100.88;54.50;;;21.20;74.00;;;;;;4915878;28;90515;-52
2023/08/26 12:16:45;;;;;;;103.72;54.83;;;21.20;75.80;;;;;;4913279;28;91172;-47
2023/08/26 12:19:17;;;;;;;102.43;54.67;;;21.20;76.10;;;;;;4921715;28;90355;-45
2023/08/26 12:21:47;;;;;;;104.28;54.75;;;21.30;74.70;;;;;;4923195;28;91514;-54